Aeroporto :
LOGIN :

Iscrizione | Disclaimer

   EN    FR    IT 

 










Sommario :    VFR   VFR Marginale   IFR   IFR Intensivo   IFR Molto Intensivo
Visibilità : 
Base nubi : 
>= 8 km
>= 3000ft
5 / 8 km
1000 / 3000 ft
1500m / 5 km
500 / 1000 ft
800 / 1500m
200 / 500 ft
< 800m
< 200 ft
Simboli :   Temporali  Nebbia  Neve Forte  Precipitazioni Forti  Vento > 20 kt
SIGMETs :   Varie  Temporali  Ghiacco  Turbolenza  Onda orograficha  Ceneri Vulcaniche






- Altitudine del aeroporto : 1036 ft
- Codice IATA : ERF


EDDE - Erfurt

ULTIMO METAR :
  • 141320Z 11009KT 080V140 CAVOK 08/01 Q1005 NOSIG

METARs OBSOLETI :
  • 141250Z 10006KT 070V130 CAVOK 07/01 Q1006 NOSIG
  • 141220Z 13005KT 100V180 CAVOK 07/00 Q1006 NOSIG
  • 141150Z 15006KT CAVOK 07/01 Q1006 NOSIG
  • 141120Z 16006KT 140V200 CAVOK 07/01 Q1006 NOSIG
  • 141050Z 17007KT 140V200 CAVOK 06/01 Q1006 NOSIG

TAF TAF EDDE
Valido dal 14 a 12 ore il 15 a 12 ore UTC


141100Z 1412/1512 12008KT CAVOK
BECMG 1415/1417 06007KT
BECMG 1423/1502 BKN009
BECMG 1502/1506 2000 BR SCT003 BKN004
PROB40
TEMPO 1505/1511 0700 FG BKN001
BECMG 1508/1511 BKN006



MetMap, La meteo Aeronautica in un colpo d'occhio ! - Copyright ORBIFLY Dicembre 2007 - Disclaimer

ORBIFLY MET'MAP TEAM :

Programmazione e sviluppo : Alexandra Zaïnal
Concezione e sviluppo : Baudouin d'Aumeries
Co-Programmazione e sviluppo : Marc-Olivier Méhu
Supporto tecnico e logistico : Manuel Goepfert
Aiuto per la traduzione : Arnaldo La Scala

Contatto : metmap@orbifly.com




FONTI E CREDITI :

   NOAA